LGZA/ZTH METAR and TAF weather

Enter ICAO airport designator
Station Type Date Time Source
LGZA METAR 2024/04/15 09:20 UTC NOAA

LGZA 150920Z 15006KT CAVOK 23/17 Q1020


Station Type Date Time Source
LGZA Decoded METAR 2024/04/15 09:20 UTC NOAA

Zakinthos Airport , Greece (LGZA) 37-45N 020-53E
Apr 15, 2024 - 05:20 AM EDT / 2024.04.15 0920 UTC
Wind: from the SSE (150 degrees) at 7 MPH (6 KT):0
Visibility: greater than 7 mile(s):0
Temperature: 73 F (23 C)
Dew Point: 62 F (17 C)
Relative Humidity: 68%
Pressure (altimeter): 30.12 in. Hg (1020 hPa)
ob: LGZA 150920Z 15006KT CAVOK 23/17 Q1020
cycle: 9

Station Type Date Time Source
LGZA TAF 2011/11/25 15:06 UTC NOAA